Ica, Peru
Current Conditions -  °F | °C
As of 11:00 PM on Sunday 23 Nov 2014 (Local Time) from SPSO Reporting Station
Few Clouds Few Clouds  
Wind Chill: 63°   Ceiling: Unl
Heat Index: 63°   Visibility: 6mi
Dew Point: 59°   Wind: 2mph
Humidity: 88%   Direction: NA
Pressure: 29.91"   Gusts: NA
Location:  14.06°S, 75.75°W
Report Text: SPSO 240400Z VRB02KT 9999 FEW011 17/15 Q1013 RMK PP000
Loading
Personal Weather Stations






























Interactive Weather Map New forecast layout! Learn more

10-Day Weather Forecast

Advertisements
Track Severe Weather on mobile